Riskybusiness — WDC4820 — position and weather

sailwx.info

Track history (hours):
 
Tides and Currents Weather Stations Pressure Air Temp Water Temp Dewpoint Dewpoint Depression Visibility Wind Speed Wind Dir Waves Ship Positions

Riskybusiness

Owner: mikuletzky, hunter r, manahawkin, NJ. More information available from US FCC via Universal Licensing System and Coast Guard Vessel Documentation Center.

Last reported at 2017-Sep-15 14:56 UTC. Time now 2017-Sep-19 22:19 UTC.
Position N 39°45' W 074°07'.

Length 14 m.

Type: Fishing. MMSI: 367031170.

Date/timePositionNaut miles runAvg speedWind from/ knotsBaromVisibWave heightAir tempDewpointWater temp
2017-Sep-15 14:56N 39°45' W 074°07'2 4.9
2017-Sep-15 14:30N 39°46' W 074°04'2 3.7
2017-Sep-15 14:00N 39°46' W 074°02'0 0.5
2017-Sep-15 13:30N 39°46' W 074°02'0 0.4
2017-Sep-15 13:00N 39°46' W 074°01'5 9.1
2017-Sep-15 12:30N 39°48' W 073°56'3 0.6
2017-Sep-15 07:31N 39°50' W 073°53'1 9.9
2017-Sep-15 07:27N 39°50' W 073°54'4 9.9
2017-Sep-15 07:00N 39°48' W 073°59'5 9.8
2017-Sep-15 06:30N 39°46' W 074°05'2 3.7
2017-Sep-15 06:00N 39°45' W 074°07'0 0.0
2017-Sep-14 14:25N 39°45' W 074°07'0 0.0
2017-Sep-14 13:55N 39°45' W 074°07'0 0.0
2017-Sep-14 13:23N 39°45' W 074°07'2 4.3
2017-Sep-14 13:00N 39°45' W 074°05'5 9.0
2017-Sep-14 12:30N 39°44' W 073°59'5 9.1
2017-Sep-14 11:55N 39°43' W 073°53'4 8.5
2017-Sep-14 11:26N 39°42' W 073°47'0 0.4
2017-Sep-14 10:29N 39°42' W 073°47'0 0.3
2017-Sep-14 09:59N 39°42' W 073°47'1 3.0
2017-Sep-14 09:30N 39°44' W 073°47'510.6
2017-Sep-14 09:01N 39°49' W 073°48'3 5.9
2017-Sep-14 08:30N 39°52' W 073°49'1 1.7
2017-Sep-14 08:00N 39°52' W 073°48'4 8.5
2017-Sep-14 07:30N 39°50' W 073°53'4 8.9
2017-Sep-14 07:00N 39°48' W 073°58'4 8.9
2017-Sep-14 06:30N 39°46' W 074°03'3 6.0
2017-Sep-14 06:00N 39°45' W 074°07'0 0.0
2017-Sep-13 15:50N 39°45' W 074°07'0 0.1
2017-Sep-13 15:25N 39°45' W 074°07'0 0.0
2017-Sep-13 14:55N 39°45' W 074°07'0 0.1
2017-Sep-13 14:24N 39°45' W 074°07'0 0.0
2017-Sep-13 14:00N 39°45' W 074°07'3 5.3
2017-Sep-13 13:29N 39°46' W 074°04'4 9.1
2017-Sep-13 13:00N 39°48' W 073°58'5 9.3
2017-Sep-13 12:30N 39°50' W 073°53'3 4.8
2017-Sep-13 11:52N 39°51' W 073°49'0 0.3
2017-Sep-13 11:28N 39°51' W 073°49'0 0.4
2017-Sep-13 11:00N 39°51' W 073°49'0 0.2
2017-Sep-13 10:27N 39°51' W 073°49'0 0.1
2017-Sep-13 09:57N 39°51' W 073°49'1 1.8
2017-Sep-13 09:30N 39°52' W 073°48'0 0.9
2017-Sep-13 08:58N 39°51' W 073°48'0 0.4
2017-Sep-13 08:25N 39°52' W 073°48'0 0.2
2017-Sep-13 08:00N 39°52' W 073°48'2 4.1
2017-Sep-13 07:30N 39°51' W 073°51'510.8
2017-Sep-13 07:00N 39°48' W 073°57'510.3
2017-Sep-13 06:30N 39°46' W 074°03'3 6.3
2017-Sep-13 06:00N 39°45' W 074°07'0 0.0
2017-Sep-12 15:28N 39°45' W 074°07'0 0.1
2017-Sep-12 14:58N 39°45' W 074°07'1 2.3
2017-Sep-12 14:30N 39°46' W 074°06'4 8.3
2017-Sep-12 13:59N 39°47' W 074°01'4 9.1
2017-Sep-12 13:30N 39°49' W 073°56'5 9.2
2017-Sep-12 13:00N 39°51' W 073°50'2 1.2
2017-Sep-12 11:45N 39°51' W 073°48'0 0.2
2017-Sep-12 11:28N 39°51' W 073°48'1 0.4
2017-Sep-12 09:35N 39°52' W 073°48'0 0.2
2017-Sep-12 09:26N 39°52' W 073°48'3 6.4
2017-Sep-12 09:00N 39°49' W 073°48'611.2
2017-Sep-12 08:29N 39°44' W 073°47'3 3.9
2017-Sep-12 07:45N 39°41' W 073°48'4 9.1
2017-Sep-12 07:18N 39°43' W 073°52'310.4
2017-Sep-12 07:00N 39°44' W 073°56'510.2
2017-Sep-12 06:30N 39°45' W 074°03'3 0.2
2017-Sep-11 16:49N 39°45' W 074°07'0 0.1
2017-Sep-11 16:30N 39°45' W 074°07'0 0.0
2017-Sep-11 16:00N 39°45' W 074°07'0 0.1
2017-Sep-11 15:26N 39°45' W 074°07'1 2.4
2017-Sep-11 15:00N 39°46' W 074°06'2 3.6
2017-Sep-11 14:28N 39°45' W 074°04'0 0.2
2017-Sep-11 13:51N 39°45' W 074°04'0 0.1
2017-Sep-11 13:24N 39°45' W 074°04'0 0.5
2017-Sep-11 12:59N 39°45' W 074°04'2 4.0
2017-Sep-11 12:30N 39°45' W 074°07'  
2017-Sep-07 17:10N 39°45' W 074°07'0 0.1
2017-Sep-07 16:51N 39°45' W 074°07'0 0.0
2017-Sep-07 16:30N 39°45' W 074°07'2 3.9
2017-Sep-07 15:55N 39°45' W 074°04'0 0.3
2017-Sep-07 15:25N 39°46' W 074°04'0 0.5
2017-Sep-07 14:58N 39°45' W 074°04'2 3.9
2017-Sep-07 14:30N 39°44' W 074°06'4 7.9
2017-Sep-07 14:00N 39°46' W 074°01'5 9.1
2017-Sep-07 13:30N 39°50' W 074°03'4 0.7
2017-Sep-07 07:26N 39°50' W 073°58'410.1
2017-Sep-07 07:00N 39°48' W 074°02'4 8.8
2017-Sep-07 06:30N 39°45' W 074°07'  
Track history (hours):
 
Tides and Currents Weather Stations Pressure Air Temp Water Temp Dewpoint Dewpoint Depression Visibility Wind Speed Wind Dir Waves Ship Positions

Riskybusiness

Owner: mikuletzky, hunter r, manahawkin, NJ. More information available from US FCC via Universal Licensing System and Coast Guard Vessel Documentation Center.

Last reported at 2017-Sep-15 14:56 UTC. Time now 2017-Sep-19 22:19 UTC.
Position N 39°45' W 074°07'.

Length 14 m.

Type: Fishing. MMSI: 367031170.

Date/timePositionNaut miles runAvg speedWind from/ knotsBaromVisibWave heightAir tempDewpointWater temp
2017-Sep-15 14:56N 39°45' W 074°07'2 4.9
2017-Sep-15 14:30N 39°46' W 074°04'2 3.7
2017-Sep-15 14:00N 39°46' W 074°02'0 0.5
2017-Sep-15 13:30N 39°46' W 074°02'0 0.4
2017-Sep-15 13:00N 39°46' W 074°01'5 9.1
2017-Sep-15 12:30N 39°48' W 073°56'3 0.6
2017-Sep-15 07:31N 39°50' W 073°53'1 9.9
2017-Sep-15 07:27N 39°50' W 073°54'4 9.9
2017-Sep-15 07:00N 39°48' W 073°59'5 9.8
2017-Sep-15 06:30N 39°46' W 074°05'2 3.7
2017-Sep-15 06:00N 39°45' W 074°07'0 0.0
2017-Sep-14 14:25N 39°45' W 074°07'0 0.0
2017-Sep-14 13:55N 39°45' W 074°07'0 0.0
2017-Sep-14 13:23N 39°45' W 074°07'2 4.3
2017-Sep-14 13:00N 39°45' W 074°05'5 9.0
2017-Sep-14 12:30N 39°44' W 073°59'5 9.1
2017-Sep-14 11:55N 39°43' W 073°53'4 8.5
2017-Sep-14 11:26N 39°42' W 073°47'0 0.4
2017-Sep-14 10:29N 39°42' W 073°47'0 0.3
2017-Sep-14 09:59N 39°42' W 073°47'1 3.0
2017-Sep-14 09:30N 39°44' W 073°47'510.6
2017-Sep-14 09:01N 39°49' W 073°48'3 5.9
2017-Sep-14 08:30N 39°52' W 073°49'1 1.7
2017-Sep-14 08:00N 39°52' W 073°48'4 8.5
2017-Sep-14 07:30N 39°50' W 073°53'4 8.9
2017-Sep-14 07:00N 39°48' W 073°58'4 8.9
2017-Sep-14 06:30N 39°46' W 074°03'3 6.0
2017-Sep-14 06:00N 39°45' W 074°07'0 0.0
2017-Sep-13 15:50N 39°45' W 074°07'0 0.1
2017-Sep-13 15:25N 39°45' W 074°07'0 0.0
2017-Sep-13 14:55N 39°45' W 074°07'0 0.1
2017-Sep-13 14:24N 39°45' W 074°07'0 0.0
2017-Sep-13 14:00N 39°45' W 074°07'3 5.3
2017-Sep-13 13:29N 39°46' W 074°04'4 9.1
2017-Sep-13 13:00N 39°48' W 073°58'5 9.3
2017-Sep-13 12:30N 39°50' W 073°53'3 4.8
2017-Sep-13 11:52N 39°51' W 073°49'0 0.3
2017-Sep-13 11:28N 39°51' W 073°49'0 0.4
2017-Sep-13 11:00N 39°51' W 073°49'0 0.2
2017-Sep-13 10:27N 39°51' W 073°49'0 0.1
2017-Sep-13 09:57N 39°51' W 073°49'1 1.8
2017-Sep-13 09:30N 39°52' W 073°48'0 0.9
2017-Sep-13 08:58N 39°51' W 073°48'0 0.4
2017-Sep-13 08:25N 39°52' W 073°48'0 0.2
2017-Sep-13 08:00N 39°52' W 073°48'2 4.1
2017-Sep-13 07:30N 39°51' W 073°51'510.8
2017-Sep-13 07:00N 39°48' W 073°57'510.3
2017-Sep-13 06:30N 39°46' W 074°03'3 6.3
2017-Sep-13 06:00N 39°45' W 074°07'0 0.0
2017-Sep-12 15:28N 39°45' W 074°07'0 0.1
2017-Sep-12 14:58N 39°45' W 074°07'1 2.3
2017-Sep-12 14:30N 39°46' W 074°06'4 8.3
2017-Sep-12 13:59N 39°47' W 074°01'4 9.1
2017-Sep-12 13:30N 39°49' W 073°56'5 9.2
2017-Sep-12 13:00N 39°51' W 073°50'2 1.2
2017-Sep-12 11:45N 39°51' W 073°48'0 0.2
2017-Sep-12 11:28N 39°51' W 073°48'1 0.4
2017-Sep-12 09:35N 39°52' W 073°48'0 0.2
2017-Sep-12 09:26N 39°52' W 073°48'3 6.4
2017-Sep-12 09:00N 39°49' W 073°48'611.2
2017-Sep-12 08:29N 39°44' W 073°47'3 3.9
2017-Sep-12 07:45N 39°41' W 073°48'4 9.1
2017-Sep-12 07:18N 39°43' W 073°52'310.4
2017-Sep-12 07:00N 39°44' W 073°56'510.2
2017-Sep-12 06:30N 39°45' W 074°03'3 0.2
2017-Sep-11 16:49N 39°45' W 074°07'0 0.1
2017-Sep-11 16:30N 39°45' W 074°07'0 0.0
2017-Sep-11 16:00N 39°45' W 074°07'0 0.1
2017-Sep-11 15:26N 39°45' W 074°07'1 2.4
2017-Sep-11 15:00N 39°46' W 074°06'2 3.6
2017-Sep-11 14:28N 39°45' W 074°04'0 0.2
2017-Sep-11 13:51N 39°45' W 074°04'0 0.1
2017-Sep-11 13:24N 39°45' W 074°04'0 0.5
2017-Sep-11 12:59N 39°45' W 074°04'2 4.0
2017-Sep-11 12:30N 39°45' W 074°07'  
2017-Sep-07 17:10N 39°45' W 074°07'0 0.1
2017-Sep-07 16:51N 39°45' W 074°07'0 0.0
2017-Sep-07 16:30N 39°45' W 074°07'2 3.9
2017-Sep-07 15:55N 39°45' W 074°04'0 0.3
2017-Sep-07 15:25N 39°46' W 074°04'0 0.5
2017-Sep-07 14:58N 39°45' W 074°04'2 3.9
2017-Sep-07 14:30N 39°44' W 074°06'4 7.9
2017-Sep-07 14:00N 39°46' W 074°01'5 9.1
2017-Sep-07 13:30N 39°50' W 074°03'4 0.7
2017-Sep-07 07:26N 39°50' W 073°58'410.1
2017-Sep-07 07:00N 39°48' W 074°02'4 8.8
2017-Sep-07 06:30N 39°45' W 074°07'  

Dump ship's entire track history